sensor_id;sensor_type;location;lat;lon;timestamp;temperature;humidity
72650;SHT31;61467;50.674;4.618;2022-10-03T00:00:21;11.80;79.80
72650;SHT31;61467;50.674;4.618;2022-10-03T00:03:16;11.80;79.64
72650;SHT31;61467;50.674;4.618;2022-10-03T00:05:52;11.71;80.08
72650;SHT31;61467;50.674;4.618;2022-10-03T00:08:33;11.74;79.81
72650;SHT31;61467;50.674;4.618;2022-10-03T00:11:07;11.74;79.84
72650;SHT31;61467;50.674;4.618;2022-10-03T00:13:41;11.78;79.89
72650;SHT31;61467;50.674;4.618;2022-10-03T00:16:12;11.73;79.89
72650;SHT31;61467;50.674;4.618;2022-10-03T00:18:53;11.71;80.05
72650;SHT31;61467;50.674;4.618;2022-10-03T00:21:35;11.70;79.96
72650;SHT31;61467;50.674;4.618;2022-10-03T00:24:12;11.71;80.17
72650;SHT31;61467;50.674;4.618;2022-10-03T00:26:45;11.69;80.09
72650;SHT31;61467;50.674;4.618;2022-10-03T00:32:21;11.64;80.10
72650;SHT31;61467;50.674;4.618;2022-10-03T00:35:04;11.64;80.22
72650;SHT31;61467;50.674;4.618;2022-10-03T00:37:35;11.64;80.01
72650;SHT31;61467;50.674;4.618;2022-10-03T00:40:27;11.66;79.96
72650;SHT31;61467;50.674;4.618;2022-10-03T00:43:15;11.62;80.04
72650;SHT31;61467;50.674;4.618;2022-10-03T00:48:52;11.57;80.19
72650;SHT31;61467;50.674;4.618;2022-10-03T00:51:43;11.60;80.33
72650;SHT31;61467;50.674;4.618;2022-10-03T00:54:38;11.56;80.14
72650;SHT31;61467;50.674;4.618;2022-10-03T00:57:27;11.59;80.40
72650;SHT31;61467;50.674;4.618;2022-10-03T01:00:11;11.57;80.35
72650;SHT31;61467;50.674;4.618;2022-10-03T01:03:00;11.54;80.34
72650;SHT31;61467;50.674;4.618;2022-10-03T01:05:41;11.60;80.46
72650;SHT31;61467;50.674;4.618;2022-10-03T01:08:44;11.53;80.04
72650;SHT31;61467;50.674;4.618;2022-10-03T01:11:22;11.54;80.08
72650;SHT31;61467;50.674;4.618;2022-10-03T01:14:02;11.54;79.96
72650;SHT31;61467;50.674;4.618;2022-10-03T01:16:39;11.56;80.12
72650;SHT31;61467;50.674;4.618;2022-10-03T01:19:26;11.50;80.09
72650;SHT31;61467;50.674;4.618;2022-10-03T01:22:21;11.50;79.92
72650;SHT31;61467;50.674;4.618;2022-10-03T01:24:56;11.47;80.02
72650;SHT31;61467;50.674;4.618;2022-10-03T01:27:31;11.46;80.05
72650;SHT31;61467;50.674;4.618;2022-10-03T01:30:26;11.42;80.29
72650;SHT31;61467;50.674;4.618;2022-10-03T01:32:58;11.42;80.13
72650;SHT31;61467;50.674;4.618;2022-10-03T01:35:32;11.34;80.41
72650;SHT31;61467;50.674;4.618;2022-10-03T01:38:08;11.37;80.40
72650;SHT31;61467;50.674;4.618;2022-10-03T01:40:45;11.33;80.59
72650;SHT31;61467;50.674;4.618;2022-10-03T01:43:18;11.36;80.45
72650;SHT31;61467;50.674;4.618;2022-10-03T01:45:54;11.30;80.55
72650;SHT31;61467;50.674;4.618;2022-10-03T01:48:32;11.30;80.36
72650;SHT31;61467;50.674;4.618;2022-10-03T01:51:06;11.34;80.31
72650;SHT31;61467;50.674;4.618;2022-10-03T01:53:47;11.30;80.31
72650;SHT31;61467;50.674;4.618;2022-10-03T01:56:17;11.30;80.40
72650;SHT31;61467;50.674;4.618;2022-10-03T01:58:57;11.30;80.50
72650;SHT31;61467;50.674;4.618;2022-10-03T02:01:33;11.29;80.36
72650;SHT31;61467;50.674;4.618;2022-10-03T02:04:05;11.29;80.46
72650;SHT31;61467;50.674;4.618;2022-10-03T02:06:44;11.27;80.32
72650;SHT31;61467;50.674;4.618;2022-10-03T02:09:24;11.22;80.97
72650;SHT31;61467;50.674;4.618;2022-10-03T02:12:08;11.25;80.80
72650;SHT31;61467;50.674;4.618;2022-10-03T02:14:45;11.22;80.84
72650;SHT31;61467;50.674;4.618;2022-10-03T02:17:23;11.23;80.93
72650;SHT31;61467;50.674;4.618;2022-10-03T02:19:59;11.23;80.94
72650;SHT31;61467;50.674;4.618;2022-10-03T02:22:30;11.22;80.90
72650;SHT31;61467;50.674;4.618;2022-10-03T02:25:08;11.23;80.79
72650;SHT31;61467;50.674;4.618;2022-10-03T02:30:45;11.18;80.88
72650;SHT31;61467;50.674;4.618;2022-10-03T02:33:38;11.16;80.94
72650;SHT31;61467;50.674;4.618;2022-10-03T02:36:42;11.13;80.77
72650;SHT31;61467;50.674;4.618;2022-10-03T02:39:45;11.13;81.03
72650;SHT31;61467;50.674;4.618;2022-10-03T02:46:07;11.11;80.78
72650;SHT31;61467;50.674;4.618;2022-10-03T02:51:53;11.09;80.65
72650;SHT31;61467;50.674;4.618;2022-10-03T02:54:52;11.08;80.54
72650;SHT31;61467;50.674;4.618;2022-10-03T03:03:39;11.05;80.63
72650;SHT31;61467;50.674;4.618;2022-10-03T03:10:01;10.96;80.74
72650;SHT31;61467;50.674;4.618;2022-10-03T03:12:54;10.95;81.02
72650;SHT31;61467;50.674;4.618;2022-10-03T03:18:26;10.91;81.33
72650;SHT31;61467;50.674;4.618;2022-10-03T03:21:14;10.92;81.17
72650;SHT31;61467;50.674;4.618;2022-10-03T03:23:59;10.91;81.21
72650;SHT31;61467;50.674;4.618;2022-10-03T03:26:58;10.86;81.16
72650;SHT31;61467;50.674;4.618;2022-10-03T03:29:36;10.89;81.27
72650;SHT31;61467;50.674;4.618;2022-10-03T03:32:11;10.89;81.14
72650;SHT31;61467;50.674;4.618;2022-10-03T03:34:45;10.91;81.25
72650;SHT31;61467;50.674;4.618;2022-10-03T03:37:21;10.89;81.28
72650;SHT31;61467;50.674;4.618;2022-10-03T03:40:08;10.82;81.40
72650;SHT31;61467;50.674;4.618;2022-10-03T03:42:55;10.81;81.54
72650;SHT31;61467;50.674;4.618;2022-10-03T03:45:35;10.81;81.60
72650;SHT31;61467;50.674;4.618;2022-10-03T03:48:17;10.86;81.44
72650;SHT31;61467;50.674;4.618;2022-10-03T03:50:56;10.82;81.38
72650;SHT31;61467;50.674;4.618;2022-10-03T03:53:48;10.82;81.43
72650;SHT31;61467;50.674;4.618;2022-10-03T03:56:40;10.79;81.22
72650;SHT31;61467;50.674;4.618;2022-10-03T03:59:20;10.81;81.28
72650;SHT31;61467;50.674;4.618;2022-10-03T04:02:09;10.76;81.28
72650;SHT31;61467;50.674;4.618;2022-10-03T04:04:48;10.81;81.26
72650;SHT31;61467;50.674;4.618;2022-10-03T04:07:29;10.76;81.46
72650;SHT31;61467;50.674;4.618;2022-10-03T04:10:11;10.75;81.29
72650;SHT31;61467;50.674;4.618;2022-10-03T04:16:03;10.69;81.79
72650;SHT31;61467;50.674;4.618;2022-10-03T04:18:53;10.71;81.33
72650;SHT31;61467;50.674;4.618;2022-10-03T04:21:50;10.69;81.48
72650;SHT31;61467;50.674;4.618;2022-10-03T04:28:10;10.69;81.23
72650;SHT31;61467;50.674;4.618;2022-10-03T04:30:51;10.63;81.37
72650;SHT31;61467;50.674;4.618;2022-10-03T04:33:30;10.64;81.34
72650;SHT31;61467;50.674;4.618;2022-10-03T04:36:25;10.60;81.54
72650;SHT31;61467;50.674;4.618;2022-10-03T04:39:06;10.64;81.40
72650;SHT31;61467;50.674;4.618;2022-10-03T04:41:40;10.58;81.45
72650;SHT31;61467;50.674;4.618;2022-10-03T04:44:14;10.60;81.41
72650;SHT31;61467;50.674;4.618;2022-10-03T04:46:49;10.60;81.26
72650;SHT31;61467;50.674;4.618;2022-10-03T04:49:27;10.55;81.25
72650;SHT31;61467;50.674;4.618;2022-10-03T04:51:58;10.57;81.24
72650;SHT31;61467;50.674;4.618;2022-10-03T04:54:35;10.57;81.17
72650;SHT31;61467;50.674;4.618;2022-10-03T04:57:18;10.57;81.09
72650;SHT31;61467;50.674;4.618;2022-10-03T04:59:50;10.61;80.83
72650;SHT31;61467;50.674;4.618;2022-10-03T05:02:30;10.57;80.92
72650;SHT31;61467;50.674;4.618;2022-10-03T05:05:17;10.55;80.69
72650;SHT31;61467;50.674;4.618;2022-10-03T05:07:53;10.55;80.90
72650;SHT31;61467;50.674;4.618;2022-10-03T05:10:39;10.50;80.97
72650;SHT31;61467;50.674;4.618;2022-10-03T05:13:13;10.50;80.91
72650;SHT31;61467;50.674;4.618;2022-10-03T05:15:53;10.47;80.90
72650;SHT31;61467;50.674;4.618;2022-10-03T05:18:28;10.47;80.87
72650;SHT31;61467;50.674;4.618;2022-10-03T05:21:04;10.48;80.81
72650;SHT31;61467;50.674;4.618;2022-10-03T05:23:44;10.40;80.88
72650;SHT31;61467;50.674;4.618;2022-10-03T05:26:19;10.43;80.83
72650;SHT31;61467;50.674;4.618;2022-10-03T05:28:52;10.44;80.82
72650;SHT31;61467;50.674;4.618;2022-10-03T05:31:30;10.40;80.76
72650;SHT31;61467;50.674;4.618;2022-10-03T05:34:05;10.36;80.80
72650;SHT31;61467;50.674;4.618;2022-10-03T05:36:56;10.34;80.88
72650;SHT31;61467;50.674;4.618;2022-10-03T05:39:36;10.40;80.68
72650;SHT31;61467;50.674;4.618;2022-10-03T05:42:34;10.36;80.78
72650;SHT31;61467;50.674;4.618;2022-10-03T05:45:06;10.36;80.74
72650;SHT31;61467;50.674;4.618;2022-10-03T05:47:50;10.32;80.86
72650;SHT31;61467;50.674;4.618;2022-10-03T05:50:41;10.29;80.95
72650;SHT31;61467;50.674;4.618;2022-10-03T05:53:25;10.30;81.01
72650;SHT31;61467;50.674;4.618;2022-10-03T05:56:04;10.27;80.97
72650;SHT31;61467;50.674;4.618;2022-10-03T05:58:42;10.29;80.92
72650;SHT31;61467;50.674;4.618;2022-10-03T06:01:35;10.29;80.87
72650;SHT31;61467;50.674;4.618;2022-10-03T06:04:20;10.33;81.06
72650;SHT31;61467;50.674;4.618;2022-10-03T06:07:00;10.27;80.89
72650;SHT31;61467;50.674;4.618;2022-10-03T06:10:09;10.27;80.78
72650;SHT31;61467;50.674;4.618;2022-10-03T06:12:46;10.26;80.93
72650;SHT31;61467;50.674;4.618;2022-10-03T06:15:35;10.29;80.95
72650;SHT31;61467;50.674;4.618;2022-10-03T06:18:30;10.26;81.12
72650;SHT31;61467;50.674;4.618;2022-10-03T06:21:14;10.33;81.13
72650;SHT31;61467;50.674;4.618;2022-10-03T06:23:58;10.37;81.03
72650;SHT31;61467;50.674;4.618;2022-10-03T06:29:52;10.36;81.40
72650;SHT31;61467;50.674;4.618;2022-10-03T06:42:00;10.65;80.69
72650;SHT31;61467;50.674;4.618;2022-10-03T06:44:43;10.61;80.69
72650;SHT31;61467;50.674;4.618;2022-10-03T06:47:27;10.78;80.62
72650;SHT31;61467;50.674;4.618;2022-10-03T06:50:21;10.84;80.38
72650;SHT31;61467;50.674;4.618;2022-10-03T06:56:05;10.98;80.50
72650;SHT31;61467;50.674;4.618;2022-10-03T06:59:15;11.08;81.65
72650;SHT31;61467;50.674;4.618;2022-10-03T07:02:20;11.26;80.17
72650;SHT31;61467;50.674;4.618;2022-10-03T07:05:30;11.39;80.17
72650;SHT31;61467;50.674;4.618;2022-10-03T07:08:28;11.47;79.89
72650;SHT31;61467;50.674;4.618;2022-10-03T07:11:13;11.54;80.18
72650;SHT31;61467;50.674;4.618;2022-10-03T07:17:37;11.80;80.32
72650;SHT31;61467;50.674;4.618;2022-10-03T07:20:25;11.87;80.43
72650;SHT31;61467;50.674;4.618;2022-10-03T07:23:24;11.97;80.32
72650;SHT31;61467;50.674;4.618;2022-10-03T07:29:13;12.10;80.48
72650;SHT31;61467;50.674;4.618;2022-10-03T07:31:58;12.18;80.52
72650;SHT31;61467;50.674;4.618;2022-10-03T07:38:05;12.28;80.03
72650;SHT31;61467;50.674;4.618;2022-10-03T07:47:19;12.50;79.62
72650;SHT31;61467;50.674;4.618;2022-10-03T07:50:04;12.55;80.19
72650;SHT31;61467;50.674;4.618;2022-10-03T07:53:02;12.63;79.96
72650;SHT31;61467;50.674;4.618;2022-10-03T07:55:53;12.59;80.08
72650;SHT31;61467;50.674;4.618;2022-10-03T07:58:43;12.73;79.86
72650;SHT31;61467;50.674;4.618;2022-10-03T08:01:44;12.90;79.86
72650;SHT31;61467;50.674;4.618;2022-10-03T08:04:49;12.69;80.43
72650;SHT31;61467;50.674;4.618;2022-10-03T08:07:32;12.63;81.03
72650;SHT31;61467;50.674;4.618;2022-10-03T08:10:14;12.84;80.23
72650;SHT31;61467;50.674;4.618;2022-10-03T08:16:00;13.00;80.25
72650;SHT31;61467;50.674;4.618;2022-10-03T08:18:41;13.13;80.14
72650;SHT31;61467;50.674;4.618;2022-10-03T08:21:17;13.14;80.39
72650;SHT31;61467;50.674;4.618;2022-10-03T08:24:08;12.97;80.85
72650;SHT31;61467;50.674;4.618;2022-10-03T08:36:03;13.50;81.13
72650;SHT31;61467;50.674;4.618;2022-10-03T08:38:48;13.66;81.26
72650;SHT31;61467;50.674;4.618;2022-10-03T08:48:05;13.69;82.02
72650;SHT31;61467;50.674;4.618;2022-10-03T08:50:53;13.73;81.61
72650;SHT31;61467;50.674;4.618;2022-10-03T08:53:55;13.98;81.00
72650;SHT31;61467;50.674;4.618;2022-10-03T08:56:34;14.14;80.61
72650;SHT31;61467;50.674;4.618;2022-10-03T09:05:39;14.40;80.05
72650;SHT31;61467;50.674;4.618;2022-10-03T09:08:40;14.53;79.02
72650;SHT31;61467;50.674;4.618;2022-10-03T09:11:48;14.61;78.90
72650;SHT31;61467;50.674;4.618;2022-10-03T09:14:31;14.71;77.44
72650;SHT31;61467;50.674;4.618;2022-10-03T09:20:22;14.95;76.95
72650;SHT31;61467;50.674;4.618;2022-10-03T09:23:21;15.05;77.11
72650;SHT31;61467;50.674;4.618;2022-10-03T09:26:13;14.94;77.38
72650;SHT31;61467;50.674;4.618;2022-10-03T09:35:26;15.12;77.81
72650;SHT31;61467;50.674;4.618;2022-10-03T09:38:34;15.33;75.90
72650;SHT31;61467;50.674;4.618;2022-10-03T09:41:24;15.40;75.77
72650;SHT31;61467;50.674;4.618;2022-10-03T09:44:25;15.43;75.90
72650;SHT31;61467;50.674;4.618;2022-10-03T09:47:12;15.46;76.78
72650;SHT31;61467;50.674;4.618;2022-10-03T09:53:26;15.40;76.20
72650;SHT31;61467;50.674;4.618;2022-10-03T09:56:30;15.49;76.87
72650;SHT31;61467;50.674;4.618;2022-10-03T09:59:15;15.64;76.26
72650;SHT31;61467;50.674;4.618;2022-10-03T10:01:49;15.56;74.88
72650;SHT31;61467;50.674;4.618;2022-10-03T10:04:41;15.63;76.30
72650;SHT31;61467;50.674;4.618;2022-10-03T10:10:47;15.54;76.41
72650;SHT31;61467;50.674;4.618;2022-10-03T10:19:52;15.79;76.55
72650;SHT31;61467;50.674;4.618;2022-10-03T10:22:46;15.77;75.98
72650;SHT31;61467;50.674;4.618;2022-10-03T10:25:31;15.84;76.22
72650;SHT31;61467;50.674;4.618;2022-10-03T10:28:28;16.01;74.89
72650;SHT31;61467;50.674;4.618;2022-10-03T10:34:20;16.24;76.06
72650;SHT31;61467;50.674;4.618;2022-10-03T10:37:34;16.65;73.12
72650;SHT31;61467;50.674;4.618;2022-10-03T11:02:10;17.67;70.47
72650;SHT31;61467;50.674;4.618;2022-10-03T11:05:16;17.74;67.22
72650;SHT31;61467;50.674;4.618;2022-10-03T11:21:41;17.72;65.67
72650;SHT31;61467;50.674;4.618;2022-10-03T11:24:34;17.58;66.19
72650;SHT31;61467;50.674;4.618;2022-10-03T11:27:43;17.38;65.96
72650;SHT31;61467;50.674;4.618;2022-10-03T11:30:35;17.57;67.75
72650;SHT31;61467;50.674;4.618;2022-10-03T11:33:32;17.67;65.69
72650;SHT31;61467;50.674;4.618;2022-10-03T11:36:36;17.58;65.28
72650;SHT31;61467;50.674;4.618;2022-10-03T11:39:16;17.51;64.75
72650;SHT31;61467;50.674;4.618;2022-10-03T11:41:50;17.48;65.93
72650;SHT31;61467;50.674;4.618;2022-10-03T11:44:23;17.48;63.37
72650;SHT31;61467;50.674;4.618;2022-10-03T11:50:15;17.26;63.60
72650;SHT31;61467;50.674;4.618;2022-10-03T11:53:06;17.19;64.13
72650;SHT31;61467;50.674;4.618;2022-10-03T11:55:39;17.30;64.76
72650;SHT31;61467;50.674;4.618;2022-10-03T11:58:45;17.21;64.81
72650;SHT31;61467;50.674;4.618;2022-10-03T12:01:26;16.94;66.81
72650;SHT31;61467;50.674;4.618;2022-10-03T12:04:00;17.04;65.78
72650;SHT31;61467;50.674;4.618;2022-10-03T12:06:56;17.13;65.80
72650;SHT31;61467;50.674;4.618;2022-10-03T12:09:53;17.10;65.51
72650;SHT31;61467;50.674;4.618;2022-10-03T12:12:29;16.97;66.12
72650;SHT31;61467;50.674;4.618;2022-10-03T12:15:04;16.99;66.31
72650;SHT31;61467;50.674;4.618;2022-10-03T12:17:39;16.90;65.27
72650;SHT31;61467;50.674;4.618;2022-10-03T12:20:16;16.93;65.91
72650;SHT31;61467;50.674;4.618;2022-10-03T12:22:49;16.94;65.21
72650;SHT31;61467;50.674;4.618;2022-10-03T12:25:21;16.99;65.89
72650;SHT31;61467;50.674;4.618;2022-10-03T12:28:00;16.97;67.22
72650;SHT31;61467;50.674;4.618;2022-10-03T12:30:38;17.12;65.35
72650;SHT31;61467;50.674;4.618;2022-10-03T12:36:08;17.03;65.81
72650;SHT31;61467;50.674;4.618;2022-10-03T12:38:45;17.02;65.94
72650;SHT31;61467;50.674;4.618;2022-10-03T12:41:23;16.87;64.52
72650;SHT31;61467;50.674;4.618;2022-10-03T12:44:12;16.92;65.86
72650;SHT31;61467;50.674;4.618;2022-10-03T12:46:49;17.02;65.65
72650;SHT31;61467;50.674;4.618;2022-10-03T12:49:19;17.02;66.25
72650;SHT31;61467;50.674;4.618;2022-10-03T12:51:55;16.83;65.62
72650;SHT31;61467;50.674;4.618;2022-10-03T12:54:36;16.82;65.14
72650;SHT31;61467;50.674;4.618;2022-10-03T12:57:37;16.73;65.69
72650;SHT31;61467;50.674;4.618;2022-10-03T13:00:13;16.77;65.18
72650;SHT31;61467;50.674;4.618;2022-10-03T13:02:46;16.62;65.34
72650;SHT31;61467;50.674;4.618;2022-10-03T13:05:45;16.61;65.28
72650;SHT31;61467;50.674;4.618;2022-10-03T13:08:32;16.77;65.27
72650;SHT31;61467;50.674;4.618;2022-10-03T13:11:16;16.66;65.08
72650;SHT31;61467;50.674;4.618;2022-10-03T13:16:45;16.51;65.70
72650;SHT31;61467;50.674;4.618;2022-10-03T13:19:17;16.53;65.99
72650;SHT31;61467;50.674;4.618;2022-10-03T13:21:55;16.48;66.81
72650;SHT31;61467;50.674;4.618;2022-10-03T13:24:32;16.48;65.86
72650;SHT31;61467;50.674;4.618;2022-10-03T13:27:18;16.34;66.35
72650;SHT31;61467;50.674;4.618;2022-10-03T13:29:52;16.38;67.31
72650;SHT31;61467;50.674;4.618;2022-10-03T13:32:29;16.45;67.25
72650;SHT31;61467;50.674;4.618;2022-10-03T13:35:15;16.38;66.86
72650;SHT31;61467;50.674;4.618;2022-10-03T13:41:14;16.58;67.08
72650;SHT31;61467;50.674;4.618;2022-10-03T13:43:47;16.62;66.31
72650;SHT31;61467;50.674;4.618;2022-10-03T13:46:21;16.66;64.55
72650;SHT31;61467;50.674;4.618;2022-10-03T13:48:55;16.55;65.63
72650;SHT31;61467;50.674;4.618;2022-10-03T13:51:30;16.53;65.71
72650;SHT31;61467;50.674;4.618;2022-10-03T13:54:02;16.61;65.53
72650;SHT31;61467;50.674;4.618;2022-10-03T13:56:42;16.72;65.75
72650;SHT31;61467;50.674;4.618;2022-10-03T13:59:22;16.69;63.80
72650;SHT31;61467;50.674;4.618;2022-10-03T14:02:04;16.90;63.76
72650;SHT31;61467;50.674;4.618;2022-10-03T14:04:56;16.90;63.33
72650;SHT31;61467;50.674;4.618;2022-10-03T14:07:41;17.00;63.78
72650;SHT31;61467;50.674;4.618;2022-10-03T14:10:28;17.14;62.77
72650;SHT31;61467;50.674;4.618;2022-10-03T14:13:11;17.17;63.79
72650;SHT31;61467;50.674;4.618;2022-10-03T14:15:47;17.26;63.06
72650;SHT31;61467;50.674;4.618;2022-10-03T14:18:31;17.24;63.15
72650;SHT31;61467;50.674;4.618;2022-10-03T14:21:43;17.31;62.65
72650;SHT31;61467;50.674;4.618;2022-10-03T14:24:26;17.26;63.00
72650;SHT31;61467;50.674;4.618;2022-10-03T14:27:07;17.19;62.86
72650;SHT31;61467;50.674;4.618;2022-10-03T14:29:41;17.14;62.09
72650;SHT31;61467;50.674;4.618;2022-10-03T14:32:19;17.23;63.38
72650;SHT31;61467;50.674;4.618;2022-10-03T14:34:54;17.07;63.49
72650;SHT31;61467;50.674;4.618;2022-10-03T14:37:28;17.16;63.15
72650;SHT31;61467;50.674;4.618;2022-10-03T14:40:07;17.12;63.99
72650;SHT31;61467;50.674;4.618;2022-10-03T14:42:45;17.13;62.94
72650;SHT31;61467;50.674;4.618;2022-10-03T14:45:16;17.17;63.00
72650;SHT31;61467;50.674;4.618;2022-10-03T14:47:48;17.20;64.63
72650;SHT31;61467;50.674;4.618;2022-10-03T14:50:19;17.31;63.69
72650;SHT31;61467;50.674;4.618;2022-10-03T14:52:50;17.44;63.39
72650;SHT31;61467;50.674;4.618;2022-10-03T14:55:21;17.38;63.36
72650;SHT31;61467;50.674;4.618;2022-10-03T14:57:51;17.14;61.14
72650;SHT31;61467;50.674;4.618;2022-10-03T15:00:24;17.23;62.00
72650;SHT31;61467;50.674;4.618;2022-10-03T15:02:51;17.27;61.54
72650;SHT31;61467;50.674;4.618;2022-10-03T15:05:31;17.17;61.59
72650;SHT31;61467;50.674;4.618;2022-10-03T15:08:01;17.02;61.65
72650;SHT31;61467;50.674;4.618;2022-10-03T15:10:29;17.02;61.37
72650;SHT31;61467;50.674;4.618;2022-10-03T15:13:01;16.86;62.93
72650;SHT31;61467;50.674;4.618;2022-10-03T15:15:31;17.02;63.07
72650;SHT31;61467;50.674;4.618;2022-10-03T15:18:00;16.97;62.22
72650;SHT31;61467;50.674;4.618;2022-10-03T15:20:34;17.03;62.56
72650;SHT31;61467;50.674;4.618;2022-10-03T15:23:04;17.16;62.72
72650;SHT31;61467;50.674;4.618;2022-10-03T15:25:35;17.24;62.28
72650;SHT31;61467;50.674;4.618;2022-10-03T15:28:04;17.40;62.76
72650;SHT31;61467;50.674;4.618;2022-10-03T15:30:34;17.31;61.40
72650;SHT31;61467;50.674;4.618;2022-10-03T15:33:06;17.31;61.78
72650;SHT31;61467;50.674;4.618;2022-10-03T15:35:39;17.27;61.85
72650;SHT31;61467;50.674;4.618;2022-10-03T15:38:10;17.13;60.64
72650;SHT31;61467;50.674;4.618;2022-10-03T15:40:39;17.10;61.76
72650;SHT31;61467;50.674;4.618;2022-10-03T15:43:26;16.96;61.65
72650;SHT31;61467;50.674;4.618;2022-10-03T15:45:55;16.90;61.69
72650;SHT31;61467;50.674;4.618;2022-10-03T15:48:23;16.99;60.99
72650;SHT31;61467;50.674;4.618;2022-10-03T15:50:54;17.19;60.51
72650;SHT31;61467;50.674;4.618;2022-10-03T15:53:23;17.12;61.07
72650;SHT31;61467;50.674;4.618;2022-10-03T15:55:52;17.16;60.49
72650;SHT31;61467;50.674;4.618;2022-10-03T15:58:23;16.99;61.53
72650;SHT31;61467;50.674;4.618;2022-10-03T16:00:59;16.90;61.70
72650;SHT31;61467;50.674;4.618;2022-10-03T16:03:30;16.76;62.37
72650;SHT31;61467;50.674;4.618;2022-10-03T16:06:05;16.80;62.40
72650;SHT31;61467;50.674;4.618;2022-10-03T16:08:42;16.66;62.55
72650;SHT31;61467;50.674;4.618;2022-10-03T16:11:18;16.71;63.45
72650;SHT31;61467;50.674;4.618;2022-10-03T16:13:53;16.72;63.63
72650;SHT31;61467;50.674;4.618;2022-10-03T16:16:25;16.66;63.34
72650;SHT31;61467;50.674;4.618;2022-10-03T16:19:18;16.53;63.61
72650;SHT31;61467;50.674;4.618;2022-10-03T16:21:49;16.53;63.89
72650;SHT31;61467;50.674;4.618;2022-10-03T16:24:30;16.56;63.89
72650;SHT31;61467;50.674;4.618;2022-10-03T16:27:06;16.47;63.86
72650;SHT31;61467;50.674;4.618;2022-10-03T16:29:35;16.44;64.01
72650;SHT31;61467;50.674;4.618;2022-10-03T16:32:04;16.36;64.61
72650;SHT31;61467;50.674;4.618;2022-10-03T16:34:33;16.31;64.99
72650;SHT31;61467;50.674;4.618;2022-10-03T16:37:03;16.21;64.97
72650;SHT31;61467;50.674;4.618;2022-10-03T16:39:34;16.21;64.98
72650;SHT31;61467;50.674;4.618;2022-10-03T16:42:09;16.29;64.23
72650;SHT31;61467;50.674;4.618;2022-10-03T16:44:39;16.25;64.34
72650;SHT31;61467;50.674;4.618;2022-10-03T16:47:09;16.20;63.93
72650;SHT31;61467;50.674;4.618;2022-10-03T16:49:39;16.14;64.31
72650;SHT31;61467;50.674;4.618;2022-10-03T16:52:30;16.11;64.50
72650;SHT31;61467;50.674;4.618;2022-10-03T16:55:00;16.10;64.83
72650;SHT31;61467;50.674;4.618;2022-10-03T16:57:31;16.10;65.16
72650;SHT31;61467;50.674;4.618;2022-10-03T17:00:02;16.04;65.42
72650;SHT31;61467;50.674;4.618;2022-10-03T17:02:35;16.08;65.60
72650;SHT31;61467;50.674;4.618;2022-10-03T17:05:05;15.98;66.08
72650;SHT31;61467;50.674;4.618;2022-10-03T17:07:39;15.94;66.43
72650;SHT31;61467;50.674;4.618;2022-10-03T17:10:22;15.93;66.89
72650;SHT31;61467;50.674;4.618;2022-10-03T17:12:53;15.94;66.64
72650;SHT31;61467;50.674;4.618;2022-10-03T17:15:26;15.86;67.82
72650;SHT31;61467;50.674;4.618;2022-10-03T17:17:55;15.87;67.78
72650;SHT31;61467;50.674;4.618;2022-10-03T17:20:35;15.81;67.92
72650;SHT31;61467;50.674;4.618;2022-10-03T17:23:10;15.71;68.20
72650;SHT31;61467;50.674;4.618;2022-10-03T17:25:47;15.69;68.40
72650;SHT31;61467;50.674;4.618;2022-10-03T17:28:26;15.54;68.92
72650;SHT31;61467;50.674;4.618;2022-10-03T17:30:58;15.54;69.13
72650;SHT31;61467;50.674;4.618;2022-10-03T17:33:32;15.54;69.68
72650;SHT31;61467;50.674;4.618;2022-10-03T17:39:02;15.44;69.75
72650;SHT31;61467;50.674;4.618;2022-10-03T17:41:34;15.43;70.12
72650;SHT31;61467;50.674;4.618;2022-10-03T17:44:17;15.36;70.15
72650;SHT31;61467;50.674;4.618;2022-10-03T17:46:52;15.21;70.76
72650;SHT31;61467;50.674;4.618;2022-10-03T17:49:29;15.18;71.29
72650;SHT31;61467;50.674;4.618;2022-10-03T17:52:01;15.16;71.25
72650;SHT31;61467;50.674;4.618;2022-10-03T17:54:32;15.19;71.00
72650;SHT31;61467;50.674;4.618;2022-10-03T17:57:05;15.13;70.96
72650;SHT31;61467;50.674;4.618;2022-10-03T17:59:41;15.39;77.41
72650;SHT31;61467;50.674;4.618;2022-10-03T18:02:18;15.49;69.95
72650;SHT31;61467;50.674;4.618;2022-10-03T18:04:47;15.40;69.89
72650;SHT31;61467;50.674;4.618;2022-10-03T18:07:20;15.29;70.44
72650;SHT31;61467;50.674;4.618;2022-10-03T18:09:52;15.15;70.64
72650;SHT31;61467;50.674;4.618;2022-10-03T18:12:25;15.12;70.91
72650;SHT31;61467;50.674;4.618;2022-10-03T18:15:23;15.01;71.15
72650;SHT31;61467;50.674;4.618;2022-10-03T18:18:01;15.01;71.73
72650;SHT31;61467;50.674;4.618;2022-10-03T18:20:40;14.98;71.74
72650;SHT31;61467;50.674;4.618;2022-10-03T18:23:15;14.91;72.02
72650;SHT31;61467;50.674;4.618;2022-10-03T18:25:52;14.78;72.21
72650;SHT31;61467;50.674;4.618;2022-10-03T18:28:32;14.78;72.48
72650;SHT31;61467;50.674;4.618;2022-10-03T18:31:03;14.70;72.36
72650;SHT31;61467;50.674;4.618;2022-10-03T18:33:35;14.67;72.49
72650;SHT31;61467;50.674;4.618;2022-10-03T18:36:17;14.57;72.53
72650;SHT31;61467;50.674;4.618;2022-10-03T18:38:45;14.53;72.67
72650;SHT31;61467;50.674;4.618;2022-10-03T18:41:15;14.53;72.71
72650;SHT31;61467;50.674;4.618;2022-10-03T18:43:49;14.44;72.85
72650;SHT31;61467;50.674;4.618;2022-10-03T18:46:20;14.41;72.81
72650;SHT31;61467;50.674;4.618;2022-10-03T18:48:57;14.36;73.32
72650;SHT31;61467;50.674;4.618;2022-10-03T18:51:30;14.36;73.32
72650;SHT31;61467;50.674;4.618;2022-10-03T18:54:02;14.34;73.35
72650;SHT31;61467;50.674;4.618;2022-10-03T18:56:31;14.34;73.42
72650;SHT31;61467;50.674;4.618;2022-10-03T18:59:13;14.22;73.57
72650;SHT31;61467;50.674;4.618;2022-10-03T19:01:48;14.17;73.46
72650;SHT31;61467;50.674;4.618;2022-10-03T19:04:29;14.17;73.63
72650;SHT31;61467;50.674;4.618;2022-10-03T19:06:59;14.13;73.55
72650;SHT31;61467;50.674;4.618;2022-10-03T19:09:31;14.12;74.07
72650;SHT31;61467;50.674;4.618;2022-10-03T19:12:08;14.06;74.13
72650;SHT31;61467;50.674;4.618;2022-10-03T19:14:40;14.13;74.17
72650;SHT31;61467;50.674;4.618;2022-10-03T19:17:19;14.06;74.11
72650;SHT31;61467;50.674;4.618;2022-10-03T19:19:51;14.01;74.41
72650;SHT31;61467;50.674;4.618;2022-10-03T19:22:24;14.05;74.45
72650;SHT31;61467;50.674;4.618;2022-10-03T19:24:54;14.03;74.50
72650;SHT31;61467;50.674;4.618;2022-10-03T19:27:37;14.02;74.37
72650;SHT31;61467;50.674;4.618;2022-10-03T19:30:06;13.96;74.45
72650;SHT31;61467;50.674;4.618;2022-10-03T19:32:46;13.93;74.44
72650;SHT31;61467;50.674;4.618;2022-10-03T19:35:15;13.95;74.30
72650;SHT31;61467;50.674;4.618;2022-10-03T19:37:47;13.83;74.21
72650;SHT31;61467;50.674;4.618;2022-10-03T19:40:32;13.79;74.27
72650;SHT31;61467;50.674;4.618;2022-10-03T19:43:22;13.78;74.53